Time;durP1;ratioP1;P1;durP2;ratioP2;P2;SDS_P1;SDS_P2;PMS_P1;PMS_P2;Temp;Humidity;BMP_temperature;BMP_pressure;BME280_temperature;BME280_humidity;BME280_pressure;Samples;Min_cycle;Max_cycle;Signal;HPM_P1;HPM_P2
2021/11/06 00:00:43;;;;;;;;;34.00;31.00;;;;;11.70;57.99;102534.25;2089652;28;46049;-62
2021/11/06 00:01:44;;;;;;;;;29.60;28.60;;;;;11.71;57.87;102533.34;2083906;28;46536;-62
2021/11/06 00:02:45;;;;;;;;;30.00;28.25;;;;;11.71;57.94;102536.91;2083912;28;47118;-63
2021/11/06 00:03:45;;;;;;;;;31.80;28.80;;;;;11.71;57.84;102536.91;2085528;28;48314;-62
2021/11/06 00:04:46;;;;;;;;;31.75;28.25;;;;;11.72;57.86;102529.81;2096814;28;47150;-62
2021/11/06 00:05:47;;;;;;;;;29.00;28.40;;;;;11.72;58.03;102524.47;2083946;28;47240;-62
2021/11/06 00:06:47;;;;;;;;;27.25;27.25;;;;;11.71;57.94;102530.69;2083942;28;47231;-63
2021/11/06 00:07:48;;;;;;;;;30.00;29.25;;;;;11.72;58.00;102535.13;2074800;28;47596;-62
2021/11/06 00:08:48;;;;;;;;;30.50;27.25;;;;;11.71;57.93;102533.34;2074823;28;47179;-62
2021/11/06 00:09:49;;;;;;;;;28.00;25.00;;;;;11.71;57.88;102530.69;2074753;28;48399;-62
2021/11/06 00:10:50;;;;;;;;;28.00;27.25;;;;;11.72;57.75;102535.13;2083399;28;47038;-62
2021/11/06 00:11:50;;;;;;;;;29.50;26.75;;;;;11.71;57.94;102536.00;2085280;28;47475;-62
2021/11/06 00:12:51;;;;;;;;;26.75;24.75;;;;;11.72;57.76;102536.00;2084037;28;47303;-62
2021/11/06 00:13:52;;;;;;;;;30.60;29.60;;;;;11.71;57.92;102536.91;2083747;28;47453;-62
2021/11/06 00:14:52;;;;;;;;;30.50;28.50;;;;;11.71;58.10;102533.34;2084630;28;46111;-62
2021/11/06 00:15:53;;;;;;;;;30.75;30.00;;;;;11.70;57.76;102532.47;2091994;28;48066;-62
2021/11/06 00:16:54;;;;;;;;;28.00;26.25;;;;;11.68;57.91;102528.00;2083150;28;48448;-61
2021/11/06 00:17:55;;;;;;;;;32.80;30.80;;;;;11.68;57.79;102538.63;2074797;28;45367;-62
2021/11/06 00:18:55;;;;;;;;;27.25;27.25;;;;;11.67;57.90;102534.19;2074451;28;47108;-62
2021/11/06 00:19:56;;;;;;;;;25.50;25.50;;;;;11.67;57.95;102536.88;2074861;28;46114;-62
2021/11/06 00:20:56;;;;;;;;;29.75;28.25;;;;;11.66;57.97;102541.28;2073995;28;48159;-62
2021/11/06 00:21:57;;;;;;;;;26.50;25.75;;;;;11.67;57.90;102547.50;2082216;28;47063;-62
2021/11/06 00:22:57;;;;;;;;;27.75;27.25;;;;;11.66;57.92;102543.97;2092064;28;45348;-63
2021/11/06 00:23:58;;;;;;;;;29.00;28.00;;;;;11.65;58.00;102544.84;2091954;28;48311;-61
2021/11/06 00:25:00;;;;;;;;;28.00;28.00;;;;;11.65;57.91;102544.84;2090692;28;48479;-62
2021/11/06 00:26:01;;;;;;;;;28.00;27.60;;;;;11.64;58.05;102543.06;2091518;28;48335;-62
2021/11/06 00:27:01;;;;;;;;;34.50;32.00;;;;;11.63;57.96;102548.38;2084062;28;47096;-62
2021/11/06 00:28:02;;;;;;;;;27.00;27.00;;;;;11.61;58.08;102545.72;2083603;28;47140;-62
2021/11/06 00:29:04;;;;;;;;;26.25;24.25;;;;;11.61;57.96;102552.81;2084106;28;47395;-62
2021/11/06 00:30:07;;;;;;;;;28.20;26.80;;;;;11.60;57.91;102546.63;2083385;28;47400;-61
2021/11/06 00:31:08;;;;;;;;;31.40;30.60;;;;;11.59;58.16;102542.19;2083907;28;45370;-62
2021/11/06 00:32:09;;;;;;;;;29.75;25.00;;;;;11.59;57.96;102547.50;2083696;28;47495;-62
2021/11/06 00:33:09;;;;;;;;;32.00;29.50;;;;;11.59;58.02;102541.28;2084110;28;48115;-62
2021/11/06 00:34:11;;;;;;;;;32.25;31.00;;;;;11.58;58.07;102542.19;2086395;28;47278;-62
2021/11/06 00:35:13;;;;;;;;;33.40;31.60;;;;;11.58;58.15;102542.19;2083817;28;48420;-62
2021/11/06 00:36:13;;;;;;;;;27.80;25.40;;;;;11.58;58.15;102539.53;2083598;28;48233;-62
2021/11/06 00:37:14;;;;;;;;;29.25;27.50;;;;;11.56;58.28;102536.84;2083635;28;48443;-62
2021/11/06 00:38:14;;;;;;;;;28.00;28.00;;;;;11.55;58.12;102531.50;2074749;28;48375;-62
2021/11/06 00:39:15;;;;;;;;;29.75;28.25;;;;;11.54;58.22;102532.38;2075019;28;45385;-64
2021/11/06 00:40:16;;;;;;;;;29.25;29.25;;;;;11.53;58.06;102536.81;2083895;28;47341;-62
2021/11/06 00:41:17;;;;;;;;;31.25;29.00;;;;;11.52;58.18;102539.47;2083499;28;47230;-62
2021/11/06 00:42:17;;;;;;;;;34.80;31.80;;;;;11.50;58.31;102543.03;2084798;28;48293;-62
2021/11/06 00:43:18;;;;;;;;;30.75;25.50;;;;;11.49;58.11;102543.03;2091946;28;47217;-62
2021/11/06 00:44:18;;;;;;;;;34.50;33.00;;;;;11.46;58.05;102541.25;2085984;28;45158;-62
2021/11/06 00:45:19;;;;;;;;;29.75;26.75;;;;;11.44;58.29;102537.69;2083295;28;47274;-62
2021/11/06 00:46:19;;;;;;;;;26.75;26.50;;;;;11.42;58.37;102535.88;2089356;28;48366;-62
2021/11/06 00:47:20;;;;;;;;;30.75;28.75;;;;;11.40;58.21;102530.56;2088857;28;48731;-62
2021/11/06 00:48:20;;;;;;;;;26.75;26.75;;;;;11.40;58.48;102540.31;2084075;28;46207;-62
2021/11/06 00:49:21;;;;;;;;;29.75;29.75;;;;;11.38;58.50;102535.00;2089394;28;47183;-62
2021/11/06 00:50:22;;;;;;;;;30.50;30.50;;;;;11.39;58.40;102534.13;2089449;28;47602;-63
2021/11/06 00:51:23;;;;;;;;;28.75;25.25;;;;;11.38;58.44;102529.69;2091791;28;47150;-62
2021/11/06 00:52:23;;;;;;;;;30.60;29.40;;;;;11.36;58.39;102531.44;2082977;28;48234;-63
2021/11/06 00:53:24;;;;;;;;;29.00;27.50;;;;;11.36;58.45;102536.78;2082881;28;46459;-63
2021/11/06 00:54:25;;;;;;;;;28.75;28.25;;;;;11.36;58.39;102539.44;2083389;28;48141;-62
2021/11/06 00:55:25;;;;;;;;;27.00;27.00;;;;;11.35;58.66;102537.66;2082765;28;47227;-63
2021/11/06 00:56:26;;;;;;;;;25.75;25.50;;;;;11.32;58.46;102535.00;2092307;28;45955;-62
2021/11/06 00:57:27;;;;;;;;;28.75;28.75;;;;;11.31;58.50;102529.66;2091717;28;47297;-62
2021/11/06 00:58:27;;;;;;;;;25.00;24.40;;;;;11.29;58.64;102528.75;2092023;28;48206;-62
2021/11/06 00:59:28;;;;;;;;;28.50;27.25;;;;;11.28;58.59;102524.31;2082885;28;47368;-62
2021/11/06 01:00:29;;;;;;;;;26.00;25.50;;;;;11.27;58.74;102522.53;2083061;28;47088;-62
2021/11/06 01:01:29;;;;;;;;;26.50;25.25;;;;;11.27;58.73;102525.19;2091626;28;48212;-63
2021/11/06 01:02:30;;;;;;;;;27.50;26.00;;;;;11.25;58.48;102517.22;2082854;28;47415;-62
2021/11/06 01:03:30;;;;;;;;;28.50;28.00;;;;;11.25;58.62;102519.88;2082594;28;47080;-62
2021/11/06 01:04:31;;;;;;;;;29.00;26.25;;;;;11.24;58.79;102523.44;2082994;28;47602;-62
2021/11/06 01:05:31;;;;;;;;;26.00;25.50;;;;;11.23;58.74;102510.13;2082628;28;47250;-62
2021/11/06 01:06:32;;;;;;;;;28.00;27.75;;;;;11.22;58.86;102514.56;2092097;28;47040;-62
2021/11/06 01:07:33;;;;;;;;;25.50;23.25;;;;;11.21;58.68;102512.78;2090834;28;47182;-62
2021/11/06 01:08:33;;;;;;;;;27.75;25.00;;;;;11.19;58.84;102512.78;2083057;28;48110;-62
2021/11/06 01:09:34;;;;;;;;;28.75;27.75;;;;;11.19;58.68;102511.91;2073739;28;47447;-62
2021/11/06 01:10:35;;;;;;;;;6.00;5.00;;;;;11.18;58.82;102511.00;2083041;28;48212;-62
2021/11/06 01:11:36;;;;;;;;;27.20;27.20;;;;;11.18;58.98;102510.13;2083720;28;46894;-62
2021/11/06 01:12:37;;;;;;;;;31.20;30.20;;;;;11.17;59.11;102510.97;2090538;28;47500;-62
2021/11/06 01:13:38;;;;;;;;;27.75;24.75;;;;;11.16;58.90;102507.44;2091666;28;47259;-62
2021/11/06 01:14:38;;;;;;;;;28.75;28.75;;;;;11.16;58.71;102519.84;2091872;28;45985;-61
2021/11/06 01:15:39;;;;;;;;;26.25;26.25;;;;;11.15;58.95;102513.63;2091528;28;48219;-62
2021/11/06 01:16:39;;;;;;;;;25.00;24.00;;;;;11.14;58.82;102514.53;2091626;28;47585;-62
2021/11/06 01:17:41;;;;;;;;;31.00;31.00;;;;;11.15;58.94;102520.72;2091551;28;46273;-62
2021/11/06 01:18:42;;;;;;;;;29.80;26.00;;;;;11.14;59.17;102516.28;2081942;28;48077;-62
2021/11/06 01:19:43;;;;;;;;;31.75;30.25;;;;;11.14;59.13;102518.94;2082877;28;48238;-62
2021/11/06 01:20:44;;;;;;;;;26.00;26.00;;;;;11.13;59.03;102522.47;2082775;28;46956;-62
2021/11/06 01:21:44;;;;;;;;;27.00;27.00;;;;;11.14;58.81;102526.91;2082724;28;46308;-62
2021/11/06 01:22:45;;;;;;;;;31.00;31.00;;;;;11.13;59.09;102520.72;2091794;28;46956;-62
2021/11/06 01:23:46;;;;;;;;;30.60;30.60;;;;;11.13;58.98;102518.06;2091383;28;47406;-62
2021/11/06 01:24:47;;;;;;;;;30.25;30.00;;;;;11.13;59.15;102515.41;2082850;28;47680;-62
2021/11/06 01:25:48;;;;;;;;;30.75;30.00;;;;;11.14;58.88;102518.94;2066379;28;47406;-62
2021/11/06 01:26:49;;;;;;;;;31.40;29.00;;;;;11.12;59.03;102524.25;2079341;28;48170;-62
2021/11/06 01:27:50;;;;;;;;;27.00;26.25;;;;;11.12;58.89;102521.59;2082815;28;47172;-62
2021/11/06 01:28:50;;;;;;;;;31.40;31.00;;;;;11.12;58.97;102513.63;2080409;28;47355;-61
2021/11/06 01:29:51;;;;;;;;;31.50;31.00;;;;;11.13;59.17;102519.81;2089357;28;47819;-61
2021/11/06 01:30:51;;;;;;;;;28.50;27.50;;;;;11.14;58.99;102521.59;2091686;28;47252;-62
2021/11/06 01:31:52;;;;;;;;;27.50;25.00;;;;;11.13;59.26;102520.72;2091500;28;48137;-62
2021/11/06 01:32:52;;;;;;;;;31.00;29.00;;;;;11.13;59.06;102523.38;2082693;28;47600;-62
2021/11/06 01:33:53;;;;;;;;;28.00;28.00;;;;;11.13;58.89;102517.16;2082733;28;47275;-62
2021/11/06 01:34:53;;;;;;;;;27.75;27.75;;;;;11.13;59.16;102520.72;2091636;28;48252;-61
2021/11/06 01:35:54;;;;;;;;;28.00;27.00;;;;;11.13;58.84;102519.81;2091617;28;48212;-63
2021/11/06 01:36:54;;;;;;;;;23.75;22.25;;;;;11.12;58.91;102513.63;2082853;28;47228;-62
2021/11/06 01:37:58;;;;;;;;;27.75;26.00;;;;;11.14;59.14;102510.97;2082703;28;47556;-63
2021/11/06 01:38:59;;;;;;;;;28.00;27.00;;;;;11.13;59.00;102507.44;2091587;28;47447;-62
2021/11/06 01:39:59;;;;;;;;;27.00;24.75;;;;;11.12;58.48;102508.31;2091627;28;47282;-62
2021/11/06 01:41:00;;;;;;;;;27.50;24.00;;;;;11.13;58.89;102510.09;2091641;28;48038;-62
2021/11/06 01:42:01;;;;;;;;;14.75;12.00;;;;;11.12;59.12;102510.09;2082645;28;47643;-62
2021/11/06 01:43:02;;;;;;;;;28.80;27.20;;;;;11.11;59.08;102510.97;2066484;28;47398;-62
2021/11/06 01:44:03;;;;;;;;;27.00;26.25;;;;;11.11;59.24;102513.63;2071379;28;48087;-62
2021/11/06 01:45:04;;;;;;;;;29.00;27.60;;;;;11.09;59.03;102510.06;2091441;28;46334;-64
2021/11/06 01:46:07;;;;;;;;;32.80;31.80;;;;;11.09;59.06;102510.06;2091620;28;46572;-62
2021/11/06 01:47:10;;;;;;;;;30.00;27.20;;;;;11.07;59.10;102512.72;2082329;28;46098;-62
2021/11/06 01:48:10;;;;;;;;;34.20;32.00;;;;;11.06;59.16;102505.63;2080310;28;45349;-63
2021/11/06 01:49:11;;;;;;;;;27.25;26.25;;;;;11.05;59.16;102511.84;2089355;28;48937;-63
2021/11/06 01:50:13;;;;;;;;;27.25;26.00;;;;;11.05;59.17;102506.53;2082739;28;48108;-62
2021/11/06 01:51:14;;;;;;;;;28.40;26.00;;;;;11.06;59.29;102512.72;2082969;28;48191;-62
2021/11/06 01:52:15;;;;;;;;;27.50;26.50;;;;;11.05;59.46;102505.59;2091566;28;46694;-62
2021/11/06 01:53:16;;;;;;;;;28.25;25.25;;;;;11.06;59.21;102507.41;2082575;28;47390;-62
2021/11/06 01:54:17;;;;;;;;;28.40;26.80;;;;;11.06;59.38;102513.63;2082716;28;48177;-62
2021/11/06 01:55:18;;;;;;;;;27.75;27.75;;;;;11.06;59.23;102508.31;2074746;28;46758;-62
2021/11/06 01:56:19;;;;;;;;;32.00;27.80;;;;;11.06;59.32;102510.06;2083040;28;47327;-62
2021/11/06 01:57:21;;;;;;;;;29.60;29.20;;;;;11.06;59.40;102516.28;2083208;28;48544;-62
2021/11/06 01:58:25;;;;;;;;;29.20;27.00;;;;;11.06;59.07;102507.41;2080193;28;48417;-62
2021/11/06 01:59:26;;;;;;;;;28.80;27.80;;;;;11.06;59.27;102508.31;2082940;28;47330;-62
2021/11/06 02:00:28;;;;;;;;;29.00;27.50;;;;;11.05;59.25;102500.28;2082683;28;48716;-62
2021/11/06 02:01:29;;;;;;;;;30.00;29.00;;;;;11.05;59.08;102508.25;2079353;28;47336;-61
2021/11/06 02:02:30;;;;;;;;;30.25;29.50;;;;;11.04;59.59;102507.38;2082876;28;47174;-62
2021/11/06 02:03:31;;;;;;;;;24.60;24.60;;;;;11.03;59.45;102502.94;2089091;28;47339;-62
2021/11/06 02:04:31;;;;;;;;;33.50;32.00;;;;;11.04;59.26;102510.03;2088734;28;47392;-62
2021/11/06 02:05:32;;;;;;;;;36.00;32.00;;;;;11.03;59.66;102507.38;2074317;28;48300;-61
2021/11/06 02:06:33;;;;;;;;;39.60;33.60;;;;;11.03;59.45;102510.03;2081816;28;48018;-62
2021/11/06 02:07:34;;;;;;;;;38.25;34.50;;;;;11.03;59.37;102510.03;2082589;28;47682;-62
2021/11/06 02:08:34;;;;;;;;;40.50;35.00;;;;;11.03;59.57;102513.56;2074291;28;47428;-62
2021/11/06 02:09:35;;;;;;;;;34.00;32.75;;;;;11.04;59.43;102511.81;2082313;28;48204;-61
2021/11/06 02:10:36;;;;;;;;;32.75;28.25;;;;;11.05;59.47;102513.56;2084061;28;48343;-62
2021/11/06 02:11:38;;;;;;;;;31.50;27.25;;;;;11.05;59.28;102513.56;2082293;28;48002;-62
2021/11/06 02:12:39;;;;;;;;;31.80;29.60;;;;;11.05;59.43;102517.16;2082604;28;48158;-62
2021/11/06 02:13:40;;;;;;;;;29.80;27.80;;;;;11.03;59.21;102516.22;2082634;28;47853;-62
2021/11/06 02:14:40;;;;;;;;;31.75;30.25;;;;;11.03;59.39;102508.25;2082418;28;47472;-63
2021/11/06 02:15:41;;;;;;;;;32.75;31.25;;;;;11.03;59.40;102510.03;2065593;28;46812;-61
2021/11/06 02:16:41;;;;;;;;;31.50;29.75;;;;;11.03;59.48;102510.03;2065946;28;48001;-61
2021/11/06 02:17:43;;;;;;;;;25.75;25.75;;;;;11.02;59.54;102511.78;2083008;28;48378;-62
2021/11/06 02:18:46;;;;;;;;;28.60;27.60;;;;;11.02;59.52;102514.44;2086783;28;47301;-61
2021/11/06 02:19:47;;;;;;;;;33.20;32.20;;;;;11.01;59.39;102514.44;2091274;28;47357;-61
2021/11/06 02:20:58;;;;;;;;;27.75;27.25;;;;;11.00;59.46;102518.88;2083220;28;47399;-62
2021/11/06 02:22:00;;;;;;;;;30.80;28.40;;;;;11.00;59.56;102518.00;2082969;28;47483;-61
2021/11/06 02:23:01;;;;;;;;;29.20;28.60;;;;;10.99;59.66;102514.44;2082904;28;47394;-62
2021/11/06 02:24:01;;;;;;;;;29.75;28.50;;;;;10.99;59.40;102513.56;2083048;28;47941;-61
2021/11/06 02:25:02;;;;;;;;;30.75;28.75;;;;;10.98;59.51;102511.78;2084983;28;47512;-61
2021/11/06 02:26:03;;;;;;;;;32.40;30.20;;;;;10.97;59.62;102524.19;2091400;28;47596;-62
2021/11/06 02:27:04;;;;;;;;;27.60;27.60;;;;;10.98;59.62;102522.41;2084227;28;48310;-62
2021/11/06 02:28:05;;;;;;;;;33.25;31.00;;;;;10.98;59.75;102523.31;2082964;28;46571;-62
2021/11/06 02:29:07;;;;;;;;;29.80;25.80;;;;;10.98;59.43;102522.41;2083003;28;47511;-61
2021/11/06 02:30:11;;;;;;;;;31.00;29.80;;;;;10.98;59.24;102522.41;2083226;28;45414;-62
2021/11/06 02:31:13;;;;;;;;;30.60;28.00;;;;;10.97;59.84;102517.97;2082830;28;47515;-62
2021/11/06 02:32:13;;;;;;;;;27.80;25.60;;;;;10.97;59.53;102516.22;2086125;28;48231;-61
2021/11/06 02:33:14;;;;;;;;;32.00;27.00;;;;;10.96;59.75;102513.56;2085489;28;48298;-61
2021/11/06 02:34:14;;;;;;;;;30.50;28.75;;;;;10.96;59.72;102513.56;2077923;28;47889;-62
2021/11/06 02:35:15;;;;;;;;;28.50;27.75;;;;;10.97;59.38;102505.59;2082021;28;48087;-61
2021/11/06 02:36:16;;;;;;;;;28.75;27.75;;;;;10.97;59.44;102512.66;2081767;28;46871;-62
2021/11/06 02:37:16;;;;;;;;;28.50;26.75;;;;;10.97;59.68;102510.91;2082668;28;46092;-62
2021/11/06 02:38:17;;;;;;;;;28.00;28.00;;;;;10.97;59.54;102505.59;2077121;28;47046;-62
2021/11/06 02:39:18;;;;;;;;;29.00;29.00;;;;;10.98;59.34;102506.47;2075524;28;47164;-62
2021/11/06 02:40:19;;;;;;;;;29.20;29.00;;;;;10.98;59.62;102506.47;2082487;28;45412;-62
2021/11/06 02:41:19;;;;;;;;;33.00;29.25;;;;;10.97;59.64;102507.34;2084471;28;45944;-62
2021/11/06 02:42:20;;;;;;;;;33.25;31.75;;;;;10.97;59.42;102508.25;2083010;28;47294;-62
2021/11/06 02:43:20;;;;;;;;;32.25;32.00;;;;;10.97;59.75;102504.69;2083005;28;47057;-62
2021/11/06 02:44:21;;;;;;;;;31.00;30.50;;;;;10.96;59.50;102505.59;2085981;28;47215;-62
2021/11/06 02:45:21;;;;;;;;;32.00;29.00;;;;;10.95;59.64;102502.03;2091269;28;47382;-62
2021/11/06 02:46:22;;;;;;;;;32.50;30.00;;;;;10.95;59.19;102502.03;2091222;28;47397;-61
2021/11/06 02:47:22;;;;;;;;;34.75;31.00;;;;;10.94;59.90;102500.25;2089235;28;47301;-62
2021/11/06 02:48:23;;;;;;;;;31.25;30.00;;;;;10.95;59.61;102496.72;2082601;28;48320;-62
2021/11/06 02:49:24;;;;;;;;;31.50;29.00;;;;;10.95;59.88;102493.19;2082779;28;48417;-61
2021/11/06 02:50:25;;;;;;;;;33.00;30.00;;;;;10.96;59.71;102500.28;2082905;28;48201;-61
2021/11/06 02:51:25;;;;;;;;;36.00;32.00;;;;;10.95;59.48;102495.84;2082892;28;47322;-62
2021/11/06 02:52:26;;;;;;;;;30.00;28.50;;;;;10.94;59.55;102497.59;2077556;28;48430;-61
2021/11/06 02:53:26;;;;;;;;;31.25;29.50;;;;;10.96;59.67;102492.31;2082215;28;47678;-61
2021/11/06 02:54:27;;;;;;;;;28.75;25.00;;;;;10.94;59.67;102494.94;2084446;28;48250;-62
2021/11/06 02:55:28;;;;;;;;;30.75;29.25;;;;;10.95;59.57;102495.84;2082823;28;47377;-62
2021/11/06 02:56:29;;;;;;;;;33.20;30.60;;;;;10.95;59.88;102493.19;2082963;28;47411;-62
2021/11/06 02:57:30;;;;;;;;;33.00;32.20;;;;;10.95;59.50;102493.19;2079013;28;48745;-61
2021/11/06 02:58:30;;;;;;;;;34.75;32.25;;;;;10.95;59.64;102498.50;2082305;28;48041;-62
2021/11/06 02:59:31;;;;;;;;;27.25;27.00;;;;;10.93;59.64;102503.81;2082780;28;47093;-62
2021/11/06 03:00:32;;;;;;;;;32.75;31.50;;;;;10.94;59.63;102499.38;2082760;28;45328;-62
2021/11/06 03:01:33;;;;;;;;;31.60;30.60;;;;;10.91;59.41;102498.44;2082765;28;48297;-62
2021/11/06 03:02:34;;;;;;;;;37.00;33.00;;;;;10.91;59.68;102500.22;2089734;28;47219;-61
2021/11/06 03:03:34;;;;;;;;;35.25;32.25;;;;;10.90;59.60;102499.34;2090804;28;47091;-62
2021/11/06 03:04:36;;;;;;;;;34.75;32.25;;;;;10.89;59.64;102497.56;2091062;28;47232;-62
2021/11/06 03:05:37;;;;;;;;;34.80;33.40;;;;;10.89;59.83;102496.69;2082234;28;48750;-62
2021/11/06 03:06:38;;;;;;;;;35.25;32.25;;;;;10.88;59.88;102501.09;2074288;28;46846;-62
2021/11/06 03:07:38;;;;;;;;;33.60;32.20;;;;;10.87;59.75;102498.44;2080940;28;48273;-62
2021/11/06 03:08:39;;;;;;;;;32.50;29.50;;;;;10.86;59.82;102499.31;2075036;28;45588;-61
2021/11/06 03:09:41;;;;;;;;;29.75;29.00;;;;;10.84;59.74;102498.44;2082050;28;48043;-62
2021/11/06 03:10:42;;;;;;;;;31.00;30.20;;;;;10.82;59.85;102502.84;2083264;28;47168;-62
2021/11/06 03:11:43;;;;;;;;;34.25;33.25;;;;;10.81;59.91;102509.94;2083114;28;48255;-62
2021/11/06 03:12:45;;;;;;;;;32.50;31.00;;;;;10.80;59.91;102507.28;2083680;28;48058;-62
2021/11/06 03:13:46;;;;;;;;;42.60;34.80;;;;;10.79;59.66;102509.00;2092316;28;48267;-62
2021/11/06 03:14:46;;;;;;;;;37.50;34.50;;;;;10.77;60.10;102505.47;2083772;28;47474;-62
2021/11/06 03:15:47;;;;;;;;;28.25;28.00;;;;;10.75;59.88;102509.00;2083384;28;48094;-62
2021/11/06 03:16:47;;;;;;;;;33.50;32.00;;;;;10.74;60.39;102501.91;2092370;28;47075;-62
2021/11/06 03:17:48;;;;;;;;;33.25;32.50;;;;;10.72;60.20;102509.88;2092489;28;47003;-62
2021/11/06 03:18:48;;;;;;;;;35.50;33.75;;;;;10.71;60.31;102518.72;2091272;28;48096;-62
2021/11/06 03:19:49;;;;;;;;;35.50;32.50;;;;;10.71;60.15;102520.47;2092349;28;47237;-62
2021/11/06 03:20:50;;;;;;;;;35.25;33.75;;;;;10.71;60.45;102517.81;2092377;28;48371;-62
2021/11/06 03:21:51;;;;;;;;;33.20;32.40;;;;;10.70;60.29;102516.06;2084894;28;48563;-62
2021/11/06 03:22:57;;;;;;;;;35.75;33.75;;;;;10.67;60.35;102516.94;2091551;28;48027;-63
2021/11/06 03:23:58;;;;;;;;;38.20;35.60;;;;;10.66;60.31;102512.47;2092525;28;46274;-62
2021/11/06 03:24:59;;;;;;;;;33.25;32.25;;;;;10.65;60.34;102512.47;2090907;28;48441;-62
2021/11/06 03:26:00;;;;;;;;;38.60;34.60;;;;;10.63;60.58;102512.44;2083408;28;46443;-62
2021/11/06 03:27:00;;;;;;;;;26.00;25.25;;;;;10.61;60.49;102514.22;2083725;28;47444;-62
2021/11/06 03:28:01;;;;;;;;;38.00;34.25;;;;;10.61;60.21;102511.56;2092225;28;47412;-62
2021/11/06 03:29:02;;;;;;;;;33.75;32.25;;;;;10.61;60.39;102508.91;2092769;28;46269;-62
2021/11/06 03:30:08;;;;;;;;;43.80;36.80;;;;;10.60;60.46;102513.31;2092078;28;48493;-61
2021/11/06 03:31:09;;;;;;;;;34.80;33.40;;;;;10.59;60.51;102505.34;2092279;28;48570;-62
2021/11/06 03:32:10;;;;;;;;;42.00;35.25;;;;;10.59;60.71;102502.69;2092254;28;47385;-62
2021/11/06 03:33:10;;;;;;;;;39.00;34.50;;;;;10.58;60.76;102501.81;2092251;28;47483;-62
2021/11/06 03:34:11;;;;;;;;;39.00;34.25;;;;;10.58;60.74;102500.94;2092172;28;47759;-62
2021/11/06 03:35:11;;;;;;;;;41.50;36.00;;;;;10.59;60.67;102503.59;2092411;28;46807;-62
2021/11/06 03:36:12;;;;;;;;;38.00;34.50;;;;;10.59;60.58;102502.69;2092323;28;48273;-61
2021/11/06 03:37:13;;;;;;;;;36.75;34.50;;;;;10.59;61.01;102510.66;2092469;28;46287;-61
2021/11/06 03:38:14;;;;;;;;;39.50;35.50;;;;;10.58;60.83;102501.81;2092226;28;47463;-62
2021/11/06 03:39:15;;;;;;;;;38.50;35.75;;;;;10.59;60.90;102505.34;2092295;28;48098;-62
2021/11/06 03:40:16;;;;;;;;;34.20;32.40;;;;;10.58;60.96;102503.59;2083497;28;48549;-61
2021/11/06 03:41:16;;;;;;;;;41.50;36.00;;;;;10.59;60.79;102503.59;2083521;28;47524;-62
2021/11/06 03:42:16;;;;;;;;;42.25;37.50;;;;;10.58;60.87;102506.25;2088054;28;47967;-62
2021/11/06 03:43:17;;;;;;;;;40.00;36.00;;;;;10.57;60.96;102508.00;2092515;28;47373;-64
2021/11/06 03:44:18;;;;;;;;;37.75;32.75;;;;;10.56;60.70;102506.22;2083093;28;47222;-62
2021/11/06 03:45:18;;;;;;;;;37.00;35.00;;;;;10.57;60.82;102502.69;2083455;28;46888;-61
2021/11/06 03:46:19;;;;;;;;;43.00;35.25;;;;;10.57;60.97;102501.81;2092258;28;47694;-61
2021/11/06 03:47:19;;;;;;;;;35.25;34.00;;;;;10.58;60.97;102500.94;2083027;28;46266;-62
2021/11/06 03:48:20;;;;;;;;;40.25;35.00;;;;;10.57;60.85;102508.00;2081714;28;47265;-61
2021/11/06 03:49:21;;;;;;;;;38.50;34.75;;;;;10.56;60.91;102505.34;2083682;28;48265;-61
2021/11/06 03:50:21;;;;;;;;;38.50;34.50;;;;;10.56;61.12;102505.34;2085267;28;47416;-62
2021/11/06 03:51:22;;;;;;;;;36.50;33.25;;;;;10.55;60.97;102507.13;2092275;28;48191;-62
2021/11/06 03:52:23;;;;;;;;;39.25;35.50;;;;;10.54;60.97;102510.66;2092467;28;48093;-61
2021/11/06 03:53:23;;;;;;;;;39.75;34.50;;;;;10.54;60.88;102504.41;2083185;28;47103;-62
2021/11/06 03:54:24;;;;;;;;;36.00;33.50;;;;;10.53;60.82;102510.59;2089747;28;47386;-62
2021/11/06 03:55:24;;;;;;;;;37.00;34.50;;;;;10.52;61.10;102509.72;2097409;28;46963;-62
2021/11/06 03:56:26;;;;;;;;;38.25;33.75;;;;;10.51;61.03;102507.94;2092492;28;48244;-61
2021/11/06 03:57:26;;;;;;;;;37.60;34.80;;;;;10.52;61.09;102507.06;2096689;28;46958;-62
2021/11/06 03:58:26;;;;;;;;;38.00;35.00;;;;;10.52;61.32;102512.38;2096901;28;48472;-61
2021/11/06 03:59:27;;;;;;;;;38.25;34.00;;;;;10.53;61.12;102510.59;2091992;28;46307;-62
2021/11/06 04:00:27;;;;;;;;;36.50;34.00;;;;;10.54;61.31;102510.66;2091822;28;47948;-61
2021/11/06 04:01:28;;;;;;;;;38.50;34.50;;;;;10.55;61.02;102508.88;2091786;28;47065;-62
2021/11/06 04:02:28;;;;;;;;;38.25;35.00;;;;;10.55;60.84;102506.22;2082479;28;47197;-62
2021/11/06 04:03:29;;;;;;;;;39.50;36.00;;;;;10.57;61.04;102515.09;2080633;28;47422;-62
2021/11/06 04:04:30;;;;;;;;;40.50;35.75;;;;;10.58;60.76;102514.19;2092079;28;48320;-62
2021/11/06 04:05:30;;;;;;;;;39.50;36.50;;;;;10.58;60.99;102517.75;2091897;28;47302;-62
2021/11/06 04:06:31;;;;;;;;;37.50;35.50;;;;;10.58;60.96;102516.84;2083546;28;48000;-61
2021/11/06 04:07:31;;;;;;;;;37.25;33.00;;;;;10.60;61.01;102520.41;2082873;28;47207;-60
2021/11/06 04:08:32;;;;;;;;;44.00;38.00;;;;;10.60;60.86;102521.28;2092283;28;46905;-60
2021/11/06 04:09:32;;;;;;;;;39.00;34.00;;;;;10.61;60.89;102524.84;2083074;28;47395;-60
2021/11/06 04:10:33;;;;;;;;;36.50;35.00;;;;;10.61;60.76;102519.53;2083470;28;48259;-61
2021/11/06 04:11:33;;;;;;;;;36.50;32.25;;;;;10.61;60.84;102520.41;2084410;28;48312;-60
2021/11/06 04:12:35;;;;;;;;;35.00;33.25;;;;;10.61;60.90;102522.19;2090250;28;47391;-61
2021/11/06 04:13:35;;;;;;;;;30.40;30.40;;;;;10.62;60.66;102521.31;2092102;28;46214;-62
2021/11/06 04:14:36;;;;;;;;;30.75;29.50;;;;;10.61;60.56;102519.53;2092416;28;48509;-62
2021/11/06 04:15:36;;;;;;;;;34.75;31.25;;;;;10.61;60.83;102523.06;2091066;28;47101;-62
2021/11/06 04:16:37;;;;;;;;;32.75;31.00;;;;;10.63;60.65;102519.53;2092274;28;48246;-61
2021/11/06 04:17:38;;;;;;;;;27.75;26.00;;;;;10.63;60.69;102523.06;2091915;28;45615;-61
2021/11/06 04:18:38;;;;;;;;;30.00;29.25;;;;;10.63;60.62;102522.19;2090909;28;46403;-65
2021/11/06 04:19:39;;;;;;;;;31.25;28.50;;;;;10.63;60.52;102528.38;2083283;28;46351;-61
2021/11/06 04:20:40;;;;;;;;;28.75;28.25;;;;;10.63;60.72;102530.16;2082906;28;47285;-61
2021/11/06 04:21:41;;;;;;;;;28.40;28.40;;;;;10.61;60.48;102524.84;2091496;28;47237;-61
2021/11/06 04:22:41;;;;;;;;;29.00;28.25;;;;;10.60;60.45;102531.03;2092068;28;47337;-61
2021/11/06 04:23:41;;;;;;;;;28.25;28.25;;;;;10.60;60.58;102531.03;2081297;28;47329;-64
2021/11/06 04:24:42;;;;;;;;;36.00;30.25;;;;;10.59;60.50;102526.59;2080329;28;45688;-62
2021/11/06 04:25:45;;;;;;;;;31.75;31.25;;;;;10.59;60.63;102534.56;2091379;28;47943;-61
2021/11/06 04:26:45;;;;;;;;;32.20;31.00;;;;;10.59;60.30;102532.78;2081039;28;48121;-61
2021/11/06 04:27:46;;;;;;;;;29.75;29.75;;;;;10.58;60.60;102533.66;2083237;28;48606;-61
2021/11/06 04:28:46;;;;;;;;;32.00;30.00;;;;;10.57;60.51;102529.25;2091395;28;47073;-61
2021/11/06 04:29:48;;;;;;;;;27.25;27.25;;;;;10.56;60.52;102532.78;2085327;28;47400;-61
2021/11/06 04:30:48;;;;;;;;;29.00;27.00;;;;;10.55;60.36;102533.66;2092238;28;48127;-62
2021/11/06 04:31:49;;;;;;;;;29.00;27.25;;;;;10.55;60.70;102538.09;2091725;28;46654;-61
2021/11/06 04:32:49;;;;;;;;;27.50;27.50;;;;;10.53;60.48;102538.03;2081802;28;47297;-61
2021/11/06 04:33:50;;;;;;;;;27.50;26.00;;;;;10.52;60.48;102533.59;2082899;28;48116;-61
2021/11/06 04:34:50;;;;;;;;;29.00;29.00;;;;;10.51;60.24;102534.50;2082287;28;47283;-61
2021/11/06 04:35:51;;;;;;;;;29.00;27.25;;;;;10.51;60.65;102531.84;2074885;28;47702;-60
2021/11/06 04:36:51;;;;;;;;;26.00;25.50;;;;;10.51;60.31;102539.81;2086113;28;46275;-61